Time;durP1;ratioP1;P1;durP2;ratioP2;P2;SDS_P1;SDS_P2;PMS_P1;PMS_P2;Temp;Humidity;BMP_temperature;BMP_pressure;BME280_temperature;BME280_humidity;BME280_pressure;Samples;Min_cycle;Max_cycle;Signal;HPM_P1;HPM_P2
2022/07/23 00:00:08;;;;;;;60.20;4.70;;;;;;;;;;5091639;28;20603;-67
2022/07/23 00:02:35;;;;;;;61.83;5.00;;;;;;;;;;5091370;28;20438;-67
2022/07/23 00:05:02;;;;;;;60.00;4.57;;;;;;;;;;5091425;28;20446;-67
2022/07/23 00:07:31;;;;;;;62.10;5.00;;;;;;;;;;5091277;28;20569;-67
2022/07/23 00:09:58;;;;;;;64.43;5.10;;;;;;;;;;5091336;28;20528;-67
2022/07/23 00:12:25;;;;;;;60.97;4.70;;;;;;;;;;5091908;28;20954;-67
2022/07/23 00:14:52;;;;;;;61.40;5.23;;;;;;;;;;5092458;28;20530;-67
2022/07/23 00:17:19;;;;;;;60.37;5.00;;;;;;;;;;5092283;28;20721;-67
2022/07/23 00:19:47;;;;;;;63.80;5.00;;;;;;;;;;5092499;28;20469;-67
2022/07/23 00:22:14;;;;;;;60.30;4.70;;;;;;;;;;5092881;28;20449;-67
2022/07/23 00:24:42;;;;;;;60.27;4.37;;;;;;;;;;5092707;28;20790;-67
2022/07/23 00:27:09;;;;;;;60.77;4.77;;;;;;;;;;5091692;28;20848;-67
2022/07/23 00:29:36;;;;;;;62.07;4.97;;;;;;;;;;5090939;28;20466;-67
2022/07/23 00:32:04;;;;;;;59.97;5.20;;;;;;;;;;5091104;28;20442;-67
2022/07/23 00:34:31;;;;;;;60.73;4.97;;;;;;;;;;5091334;28;20453;-67
2022/07/23 00:36:58;;;;;;;59.10;3.90;;;;;;;;;;5091273;28;20442;-67
2022/07/23 00:39:25;;;;;;;59.97;3.90;;;;;;;;;;5091010;28;20472;-67
2022/07/23 00:41:53;;;;;;;59.30;4.53;;;;;;;;;;5091025;28;20446;-67
2022/07/23 00:44:21;;;;;;;61.43;4.70;;;;;;;;;;5091034;28;20910;-67
2022/07/23 00:46:49;;;;;;;59.93;4.57;;;;;;;;;;5090915;28;20500;-66
2022/07/23 00:49:17;;;;;;;61.07;4.50;;;;;;;;;;5091511;28;20963;-66
2022/07/23 00:51:44;;;;;;;59.87;4.37;;;;;;;;;;5092341;28;20471;-67
2022/07/23 00:54:11;;;;;;;59.67;4.30;;;;;;;;;;5092120;28;20458;-67
2022/07/23 00:56:38;;;;;;;60.73;4.00;;;;;;;;;;5092047;28;20442;-67
2022/07/23 00:59:07;;;;;;;63.97;4.90;;;;;;;;;;5090791;28;20468;-67
2022/07/23 01:01:34;;;;;;;59.80;4.67;;;;;;;;;;5090588;28;20491;-67
2022/07/23 01:04:02;;;;;;;60.70;4.27;;;;;;;;;;5090761;28;20446;-67
2022/07/23 01:06:29;;;;;;;62.50;5.17;;;;;;;;;;5090664;28;20481;-67
2022/07/23 01:08:56;;;;;;;60.87;4.70;;;;;;;;;;5090598;28;20449;-67
2022/07/23 01:11:24;;;;;;;59.80;4.70;;;;;;;;;;5090367;28;20487;-67
2022/07/23 01:13:52;;;;;;;60.20;4.70;;;;;;;;;;5090760;28;20494;-67
2022/07/23 01:16:20;;;;;;;62.00;5.03;;;;;;;;;;5090531;28;20940;-67
2022/07/23 01:18:47;;;;;;;60.07;4.40;;;;;;;;;;5089758;28;20457;-67
2022/07/23 01:21:14;;;;;;;60.10;4.70;;;;;;;;;;5091669;28;20495;-67
2022/07/23 01:23:43;;;;;;;63.00;5.00;;;;;;;;;;5092112;28;20454;-67
2022/07/23 01:26:10;;;;;;;60.73;4.97;;;;;;;;;;5091580;28;20454;-67
2022/07/23 01:28:37;;;;;;;60.30;4.50;;;;;;;;;;5091308;28;20517;-67
2022/07/23 01:31:04;;;;;;;60.20;4.40;;;;;;;;;;5090528;28;20478;-67
2022/07/23 01:33:32;;;;;;;61.20;4.67;;;;;;;;;;5090533;28;20814;-67
2022/07/23 01:35:59;;;;;;;60.60;4.73;;;;;;;;;;5090644;28;20457;-67
2022/07/23 01:38:26;;;;;;;59.93;4.20;;;;;;;;;;5091034;28;20442;-67
2022/07/23 01:40:54;;;;;;;59.20;4.40;;;;;;;;;;5094472;28;20481;-67
2022/07/23 01:43:21;;;;;;;60.37;4.50;;;;;;;;;;5094767;28;20604;-67
2022/07/23 01:45:48;;;;;;;60.37;4.90;;;;;;;;;;5094605;28;20450;-67
2022/07/23 01:48:16;;;;;;;59.40;4.37;;;;;;;;;;5094620;28;20497;-67
2022/07/23 01:50:43;;;;;;;59.87;4.53;;;;;;;;;;5095244;28;20465;-67
2022/07/23 01:53:10;;;;;;;60.20;4.43;;;;;;;;;;5095258;28;20831;-67
2022/07/23 01:55:37;;;;;;;60.40;4.50;;;;;;;;;;5095669;28;20450;-67
2022/07/23 01:58:06;;;;;;;60.97;5.60;;;;;;;;;;5095078;28;20930;-67
2022/07/23 02:00:33;;;;;;;60.73;4.13;;;;;;;;;;5093719;28;20818;-67
2022/07/23 02:03:00;;;;;;;60.47;4.40;;;;;;;;;;5093748;28;20453;-67
2022/07/23 02:05:28;;;;;;;60.90;3.93;;;;;;;;;;5093763;28;20450;-67
2022/07/23 02:07:55;;;;;;;60.10;4.53;;;;;;;;;;5093845;28;20492;-67
2022/07/23 02:10:23;;;;;;;61.23;4.53;;;;;;;;;;5093693;28;20466;-67
2022/07/23 02:12:50;;;;;;;60.47;4.87;;;;;;;;;;5093956;28;20859;-67
2022/07/23 02:15:19;;;;;;;60.80;4.77;;;;;;;;;;5093632;28;20830;-67
2022/07/23 02:17:46;;;;;;;61.50;5.40;;;;;;;;;;5093750;28;20808;-67
2022/07/23 02:20:14;;;;;;;65.40;4.70;;;;;;;;;;5094222;28;20474;-67
2022/07/23 02:22:41;;;;;;;60.87;4.53;;;;;;;;;;5094759;28;20960;-67
2022/07/23 02:25:09;;;;;;;60.30;5.53;;;;;;;;;;5094993;28;20450;-67
2022/07/23 02:27:37;;;;;;;62.00;4.70;;;;;;;;;;5094965;28;20822;-67
2022/07/23 02:30:04;;;;;;;61.13;5.10;;;;;;;;;;5093338;28;20473;-67
2022/07/23 02:32:33;;;;;;;60.93;4.70;;;;;;;;;;5093202;28;20801;-67
2022/07/23 02:35:00;;;;;;;60.60;4.37;;;;;;;;;;5093138;28;20444;-67
2022/07/23 02:37:28;;;;;;;60.80;5.10;;;;;;;;;;5093340;28;20449;-67
2022/07/23 02:39:55;;;;;;;59.67;4.40;;;;;;;;;;5092735;28;20471;-67
2022/07/23 02:42:23;;;;;;;59.77;4.70;;;;;;;;;;5093316;28;20469;-67
2022/07/23 02:44:51;;;;;;;61.57;5.00;;;;;;;;;;5093034;28;20456;-67
2022/07/23 02:47:18;;;;;;;60.30;4.73;;;;;;;;;;5093198;28;20659;-67
2022/07/23 02:49:46;;;;;;;60.27;4.73;;;;;;;;;;5093000;28;20465;-67
2022/07/23 02:52:13;;;;;;;60.10;4.20;;;;;;;;;;5094271;28;20626;-67
2022/07/23 02:54:40;;;;;;;60.27;4.60;;;;;;;;;;5094234;28;20449;-67
2022/07/23 02:57:08;;;;;;;60.87;5.50;;;;;;;;;;5094251;28;20456;-67
2022/07/23 02:59:35;;;;;;;60.77;4.97;;;;;;;;;;5092906;28;20485;-67
2022/07/23 03:02:02;;;;;;;60.40;4.40;;;;;;;;;;5092865;28;20540;-67
2022/07/23 03:04:29;;;;;;;67.67;5.20;;;;;;;;;;5092875;28;20822;-67
2022/07/23 03:06:58;;;;;;;60.40;3.93;;;;;;;;;;5092440;28;20952;-67
2022/07/23 03:09:25;;;;;;;59.80;4.20;;;;;;;;;;5092159;28;20561;-67
2022/07/23 03:11:52;;;;;;;62.00;4.80;;;;;;;;;;5092350;28;20449;-67
2022/07/23 03:14:19;;;;;;;60.63;4.93;;;;;;;;;;5092381;28;20816;-67
2022/07/23 03:16:46;;;;;;;61.37;4.70;;;;;;;;;;5092311;28;20955;-67
2022/07/23 03:19:13;;;;;;;60.40;5.23;;;;;;;;;;5092474;28;20538;-67
2022/07/23 03:21:40;;;;;;;60.90;4.97;;;;;;;;;;5093876;28;20827;-67
2022/07/23 03:24:10;;;;;;;60.67;4.63;;;;;;;;;;5093484;28;20507;-67
2022/07/23 03:26:38;;;;;;;64.40;5.60;;;;;;;;;;5093489;28;20448;-67
2022/07/23 03:29:05;;;;;;;60.03;5.40;;;;;;;;;;5092755;28;20853;-67
2022/07/23 03:31:32;;;;;;;60.80;5.20;;;;;;;;;;5092367;28;20819;-67
2022/07/23 03:33:59;;;;;;;60.10;4.60;;;;;;;;;;5092201;28;20539;-67
2022/07/23 03:36:26;;;;;;;61.00;5.00;;;;;;;;;;5091901;28;20798;-67
2022/07/23 03:38:54;;;;;;;61.43;5.00;;;;;;;;;;5091777;28;20467;-67
2022/07/23 03:41:22;;;;;;;64.30;4.87;;;;;;;;;;5091607;28;20574;-67
2022/07/23 03:43:49;;;;;;;60.20;4.67;;;;;;;;;;5091925;28;20451;-67
2022/07/23 03:46:16;;;;;;;60.83;5.53;;;;;;;;;;5091915;28;20512;-67
2022/07/23 03:48:43;;;;;;;60.23;4.53;;;;;;;;;;5091697;28;20489;-67
2022/07/23 03:51:11;;;;;;;61.47;5.30;;;;;;;;;;5092800;28;21076;-67
2022/07/23 03:53:38;;;;;;;61.50;5.13;;;;;;;;;;5093005;28;20457;-67
2022/07/23 03:56:05;;;;;;;61.10;5.60;;;;;;;;;;5092918;28;20451;-67
2022/07/23 03:58:34;;;;;;;60.80;4.77;;;;;;;;;;5092871;28;20455;-67
2022/07/23 04:01:01;;;;;;;62.30;5.57;;;;;;;;;;5091500;28;20475;-67
2022/07/23 04:03:28;;;;;;;61.50;5.30;;;;;;;;;;5091416;28;20448;-67
2022/07/23 04:05:55;;;;;;;61.27;5.50;;;;;;;;;;5091384;28;20537;-67
2022/07/23 04:08:22;;;;;;;60.47;4.57;;;;;;;;;;5091000;28;20661;-67
2022/07/23 04:10:49;;;;;;;60.77;5.23;;;;;;;;;;5091254;28;20493;-67
2022/07/23 04:13:16;;;;;;;60.73;4.83;;;;;;;;;;5091142;28;20530;-67
2022/07/23 04:15:45;;;;;;;60.73;4.40;;;;;;;;;;5091423;28;20530;-67
2022/07/23 04:18:12;;;;;;;60.87;4.93;;;;;;;;;;5091188;28;20453;-67
2022/07/23 04:20:39;;;;;;;62.00;5.47;;;;;;;;;;5091741;28;20463;-67
2022/07/23 04:23:06;;;;;;;60.30;4.70;;;;;;;;;;5092741;28;20447;-67
2022/07/23 04:25:33;;;;;;;60.70;4.70;;;;;;;;;;5092430;28;20452;-67
2022/07/23 04:28:00;;;;;;;61.50;5.63;;;;;;;;;;5092479;28;20490;-67
2022/07/23 04:30:28;;;;;;;62.43;5.80;;;;;;;;;;5091423;28;21014;-67
2022/07/23 04:32:56;;;;;;;60.90;5.27;;;;;;;;;;5090788;28;21086;-67
2022/07/23 04:35:23;;;;;;;61.30;5.37;;;;;;;;;;5090710;28;20840;-67
2022/07/23 04:37:50;;;;;;;61.60;5.10;;;;;;;;;;5090779;28;20452;-67
2022/07/23 04:40:17;;;;;;;62.33;5.90;;;;;;;;;;5090755;28;20469;-67
2022/07/23 04:42:45;;;;;;;61.67;4.90;;;;;;;;;;5090706;28;20445;-67
2022/07/23 04:45:12;;;;;;;60.93;5.80;;;;;;;;;;5090830;28;20451;-67
2022/07/23 04:47:39;;;;;;;62.70;4.90;;;;;;;;;;5090589;28;20511;-67
2022/07/23 04:50:08;;;;;;;61.80;5.17;;;;;;;;;;5090525;28;20478;-67
2022/07/23 04:52:35;;;;;;;61.80;5.43;;;;;;;;;;5092262;28;20723;-67
2022/07/23 04:55:02;;;;;;;60.80;5.00;;;;;;;;;;5092085;28;20947;-67
2022/07/23 04:57:29;;;;;;;60.30;5.30;;;;;;;;;;5092121;28;20444;-67
2022/07/23 04:59:56;;;;;;;63.87;5.60;;;;;;;;;;5091342;28;20466;-67
2022/07/23 05:02:23;;;;;;;63.07;5.50;;;;;;;;;;5090806;28;20454;-67
2022/07/23 05:04:50;;;;;;;63.57;5.60;;;;;;;;;;5090589;28;20795;-67
2022/07/23 05:07:19;;;;;;;65.43;5.63;;;;;;;;;;5090086;28;20451;-67
2022/07/23 05:09:46;;;;;;;62.10;5.10;;;;;;;;;;5089992;28;21011;-67
2022/07/23 05:12:13;;;;;;;62.10;5.87;;;;;;;;;;5090322;28;20452;-67
2022/07/23 05:14:40;;;;;;;61.47;5.73;;;;;;;;;;5089704;28;20448;-67
2022/07/23 05:17:07;;;;;;;62.83;5.17;;;;;;;;;;5090136;28;20533;-67
2022/07/23 05:19:35;;;;;;;61.03;4.93;;;;;;;;;;5090123;28;20465;-67
2022/07/23 05:22:02;;;;;;;60.33;5.37;;;;;;;;;;5091741;28;20901;-67
2022/07/23 05:24:30;;;;;;;60.57;5.47;;;;;;;;;;5091702;28;20994;-67
2022/07/23 05:26:57;;;;;;;60.97;5.33;;;;;;;;;;5091897;28;20958;-67
2022/07/23 05:29:24;;;;;;;62.73;5.27;;;;;;;;;;5091344;28;20484;-67
2022/07/23 05:31:52;;;;;;;60.37;4.97;;;;;;;;;;5090405;28;20475;-67
2022/07/23 05:34:19;;;;;;;61.00;5.37;;;;;;;;;;5090446;28;20455;-67
2022/07/23 05:36:46;;;;;;;60.10;5.33;;;;;;;;;;5090376;28;20551;-67
2022/07/23 05:39:13;;;;;;;64.90;5.17;;;;;;;;;;5089649;28;21006;-67
2022/07/23 05:41:41;;;;;;;60.40;4.80;;;;;;;;;;5090069;28;20445;-67
2022/07/23 05:44:09;;;;;;;61.83;5.80;;;;;;;;;;5090282;28;20481;-67
2022/07/23 05:46:36;;;;;;;60.20;5.20;;;;;;;;;;5090021;28;20471;-67
2022/07/23 05:49:03;;;;;;;60.43;5.00;;;;;;;;;;5089926;28;20493;-67
2022/07/23 05:51:30;;;;;;;60.90;5.13;;;;;;;;;;5090988;28;20541;-67
2022/07/23 05:53:57;;;;;;;61.70;4.43;;;;;;;;;;5091666;28;20536;-67
2022/07/23 05:56:24;;;;;;;62.47;4.70;;;;;;;;;;5091702;28;20457;-67
2022/07/23 05:58:53;;;;;;;60.17;5.53;;;;;;;;;;5089220;28;20571;-67
2022/07/23 06:01:20;;;;;;;61.40;4.97;;;;;;;;;;5089899;28;20561;-67
2022/07/23 06:03:47;;;;;;;62.53;5.70;;;;;;;;;;5089368;28;20481;-66
2022/07/23 06:06:15;;;;;;;60.40;5.73;;;;;;;;;;5089694;28;20798;-67
2022/07/23 06:08:42;;;;;;;60.67;5.10;;;;;;;;;;5090306;28;20579;-66
2022/07/23 06:11:09;;;;;;;62.93;5.70;;;;;;;;;;5089054;28;21022;-66
2022/07/23 06:13:36;;;;;;;60.83;5.40;;;;;;;;;;5089093;28;20572;-66
2022/07/23 06:16:05;;;;;;;60.83;5.17;;;;;;;;;;5088813;28;20477;-66
2022/07/23 06:18:32;;;;;;;60.50;5.30;;;;;;;;;;5088973;28;20457;-66
2022/07/23 06:20:59;;;;;;;60.87;5.07;;;;;;;;;;5089452;28;20470;-66
2022/07/23 06:23:27;;;;;;;60.50;5.20;;;;;;;;;;5090304;28;20451;-66
2022/07/23 06:25:54;;;;;;;61.00;5.47;;;;;;;;;;5092106;28;20446;-66
2022/07/23 06:28:21;;;;;;;60.83;5.20;;;;;;;;;;5094293;28;20482;-66
2022/07/23 06:30:48;;;;;;;61.20;5.40;;;;;;;;;;5094043;28;20494;-66
2022/07/23 06:33:17;;;;;;;60.70;5.03;;;;;;;;;;5093081;28;20447;-66
2022/07/23 06:35:44;;;;;;;61.87;5.73;;;;;;;;;;5092780;28;20812;-66
2022/07/23 06:38:11;;;;;;;63.80;5.30;;;;;;;;;;5091251;28;20538;-66
2022/07/23 06:40:38;;;;;;;60.50;5.40;;;;;;;;;;5092460;28;20466;-66
2022/07/23 06:43:05;;;;;;;61.10;5.53;;;;;;;;;;5092653;28;20447;-66
2022/07/23 06:45:32;;;;;;;61.40;5.93;;;;;;;;;;5092764;28;20446;-66
2022/07/23 06:47:59;;;;;;;61.40;5.30;;;;;;;;;;5092239;28;20453;-66
2022/07/23 06:50:28;;;;;;;64.40;6.03;;;;;;;;;;5092183;28;20462;-66
2022/07/23 06:52:55;;;;;;;61.13;5.40;;;;;;;;;;5093754;28;20975;-66
2022/07/23 06:55:22;;;;;;;62.40;6.53;;;;;;;;;;5094212;28;20544;-66
2022/07/23 06:57:49;;;;;;;60.27;5.20;;;;;;;;;;5094045;28;20469;-66
2022/07/23 07:00:16;;;;;;;61.27;5.40;;;;;;;;;;5093575;28;20469;-66
2022/07/23 07:02:43;;;;;;;63.77;6.33;;;;;;;;;;5092275;28;20997;-66
2022/07/23 07:05:11;;;;;;;63.40;5.47;;;;;;;;;;5092620;28;20967;-66
2022/07/23 07:07:39;;;;;;;63.00;5.60;;;;;;;;;;5091941;28;20449;-66
2022/07/23 07:10:07;;;;;;;61.23;5.90;;;;;;;;;;5090310;28;21072;-66
2022/07/23 07:12:34;;;;;;;61.27;5.80;;;;;;;;;;5092399;28;20447;-66
2022/07/23 07:15:01;;;;;;;64.50;6.47;;;;;;;;;;5091836;28;20543;-66
2022/07/23 07:17:28;;;;;;;64.10;6.03;;;;;;;;;;5091926;28;20557;-66
2022/07/23 07:19:55;;;;;;;62.50;5.67;;;;;;;;;;5091527;28;20813;-66
2022/07/23 07:22:22;;;;;;;63.87;6.07;;;;;;;;;;5092967;28;20453;-66
2022/07/23 07:24:51;;;;;;;62.97;6.53;;;;;;;;;;5092899;28;20959;-66
2022/07/23 07:27:18;;;;;;;62.00;5.80;;;;;;;;;;5093107;28;20456;-66
2022/07/23 07:29:45;;;;;;;63.37;6.53;;;;;;;;;;5092666;28;20497;-66
2022/07/23 07:32:12;;;;;;;62.90;6.00;;;;;;;;;;5092842;28;20817;-66
2022/07/23 07:34:40;;;;;;;62.60;6.40;;;;;;;;;;5091428;28;20965;-66
2022/07/23 07:37:07;;;;;;;63.40;6.03;;;;;;;;;;5091160;28;20478;-66
2022/07/23 07:39:34;;;;;;;61.90;6.30;;;;;;;;;;5091483;28;20475;-66
2022/07/23 07:42:02;;;;;;;63.50;6.70;;;;;;;;;;5090392;28;20902;-66
2022/07/23 07:44:29;;;;;;;61.57;6.10;;;;;;;;;;5091297;28;20829;-66
2022/07/23 07:46:56;;;;;;;62.20;6.07;;;;;;;;;;5091480;28;20452;-66
2022/07/23 07:49:24;;;;;;;63.00;6.73;;;;;;;;;;5090400;28;20856;-66
2022/07/23 07:51:51;;;;;;;66.47;6.73;;;;;;;;;;5091472;28;20449;-66
2022/07/23 07:54:18;;;;;;;66.03;6.60;;;;;;;;;;5093184;28;20442;-66
2022/07/23 07:56:45;;;;;;;64.93;6.67;;;;;;;;;;5093188;28;20451;-66
2022/07/23 07:59:14;;;;;;;61.27;5.90;;;;;;;;;;5091847;28;20469;-66
2022/07/23 08:01:41;;;;;;;61.50;5.43;;;;;;;;;;5091517;28;20863;-66
2022/07/23 08:04:08;;;;;;;63.07;6.13;;;;;;;;;;5090704;28;20453;-66
2022/07/23 08:06:36;;;;;;;62.90;7.27;;;;;;;;;;5091126;28;20452;-66
2022/07/23 08:09:03;;;;;;;61.50;5.43;;;;;;;;;;5090479;28;20488;-66
2022/07/23 08:11:30;;;;;;;61.27;6.10;;;;;;;;;;5090742;28;20450;-66
2022/07/23 08:13:57;;;;;;;62.67;6.50;;;;;;;;;;5089644;28;20455;-66
2022/07/23 08:16:25;;;;;;;61.77;5.73;;;;;;;;;;5090986;28;20445;-66
2022/07/23 08:18:53;;;;;;;62.87;5.87;;;;;;;;;;5090566;28;20442;-66
2022/07/23 08:21:20;;;;;;;61.10;6.17;;;;;;;;;;5090847;28;20998;-66
2022/07/23 08:23:47;;;;;;;62.27;6.13;;;;;;;;;;5091875;28;20450;-66
2022/07/23 08:26:14;;;;;;;64.70;6.63;;;;;;;;;;5092406;28;20452;-66
2022/07/23 08:28:41;;;;;;;61.30;5.70;;;;;;;;;;5091631;28;20866;-66
2022/07/23 08:31:10;;;;;;;62.20;5.53;;;;;;;;;;5092212;28;20466;-66
2022/07/23 08:33:39;;;;;;;62.50;6.00;;;;;;;;;;5091028;28;21013;-66
2022/07/23 08:36:06;;;;;;;63.27;5.57;;;;;;;;;;5090651;28;20447;-66
2022/07/23 08:38:35;;;;;;;60.47;5.17;;;;;;;;;;5090371;28;20453;-66
2022/07/23 08:41:04;;;;;;;61.00;5.70;;;;;;;;;;5090370;28;20834;-66
2022/07/23 08:43:32;;;;;;;61.57;5.53;;;;;;;;;;5088622;28;20897;-66
2022/07/23 08:46:00;;;;;;;62.60;6.50;;;;;;;;;;5090040;28;20996;-66
2022/07/23 08:48:28;;;;;;;65.50;7.83;;;;;;;;;;5089378;28;20446;-66
2022/07/23 08:50:58;;;;;;;68.67;8.03;;;;;;;;;;5089889;28;20470;-66
2022/07/23 08:53:25;;;;;;;61.83;5.90;;;;;;;;;;5091569;28;20460;-66
2022/07/23 08:55:53;;;;;;;61.97;5.70;;;;;;;;;;5091824;28;20445;-66
2022/07/23 08:58:21;;;;;;;62.17;6.40;;;;;;;;;;5091813;28;20461;-66
2022/07/23 09:00:49;;;;;;;61.33;5.97;;;;;;;;;;5091956;28;20517;-66
2022/07/23 09:03:17;;;;;;;60.63;5.70;;;;;;;;;;5090618;28;20515;-66
2022/07/23 09:05:44;;;;;;;62.23;6.87;;;;;;;;;;5090138;28;20454;-66
2022/07/23 09:08:14;;;;;;;62.07;5.40;;;;;;;;;;5090019;28;20450;-66
2022/07/23 09:10:52;;;;;;;60.47;5.07;;;;;;;;;;5089333;28;20493;-66
2022/07/23 09:13:26;;;;;;;61.17;5.57;;;;;;;;;;5090137;28;20430;-66
2022/07/23 09:15:54;;;;;;;60.97;5.30;;;;;;;;;;5089046;28;20485;-66
2022/07/23 09:18:21;;;;;;;61.67;5.13;;;;;;;;;;5089989;28;20460;-66
2022/07/23 09:20:48;;;;;;;63.57;5.27;;;;;;;;;;5089731;28;20484;-66
2022/07/23 09:23:16;;;;;;;60.77;4.90;;;;;;;;;;5090347;28;20465;-66
2022/07/23 09:25:43;;;;;;;59.90;4.80;;;;;;;;;;5091053;28;20460;-66
2022/07/23 09:28:10;;;;;;;60.70;5.13;;;;;;;;;;5091404;28;20449;-66
2022/07/23 09:30:39;;;;;;;60.47;5.10;;;;;;;;;;5090820;28;20490;-66
2022/07/23 09:33:09;;;;;;;60.00;4.60;;;;;;;;;;5090930;28;20493;-66
2022/07/23 09:35:50;;;;;;;60.90;4.73;;;;;;;;;;5089886;28;20442;-66
2022/07/23 09:38:19;;;;;;;61.57;4.90;;;;;;;;;;5090009;28;20454;-66
2022/07/23 09:40:46;;;;;;;59.70;5.13;;;;;;;;;;5090160;28;20466;-67
2022/07/23 09:43:14;;;;;;;59.47;4.50;;;;;;;;;;5089953;28;20454;-66
2022/07/23 09:45:41;;;;;;;60.47;4.70;;;;;;;;;;5089749;28;20769;-66
2022/07/23 09:48:12;;;;;;;60.70;4.67;;;;;;;;;;5088331;28;20470;-66
2022/07/23 09:50:39;;;;;;;59.83;4.57;;;;;;;;;;5089811;28;20940;-67
2022/07/23 09:53:06;;;;;;;60.70;4.70;;;;;;;;;;5089658;28;20448;-67
2022/07/23 09:55:37;;;;;;;61.87;4.97;;;;;;;;;;5091790;28;20557;-67
2022/07/23 09:58:05;;;;;;;60.80;5.00;;;;;;;;;;5091327;28;20538;-67
2022/07/23 10:00:33;;;;;;;60.67;4.90;;;;;;;;;;5096514;28;20459;-67
2022/07/23 10:03:01;;;;;;;61.20;5.50;;;;;;;;;;5095750;28;20482;-67
2022/07/23 10:05:28;;;;;;;60.73;5.00;;;;;;;;;;5094407;28;20829;-65
2022/07/23 10:07:56;;;;;;;60.60;4.60;;;;;;;;;;5093205;28;20450;-66
2022/07/23 10:10:24;;;;;;;60.13;4.53;;;;;;;;;;5094516;28;20492;-66
2022/07/23 10:15:41;;;;;;;61.17;5.00;;;;;;;;;;5067221;28;20521;-66
2022/07/23 10:18:08;;;;;;;61.17;5.23;;;;;;;;;;5093204;28;20442;-66
2022/07/23 10:20:35;;;;;;;61.73;5.33;;;;;;;;;;5092848;28;20458;-66
2022/07/23 10:23:06;;;;;;;61.90;4.90;;;;;;;;;;5093221;28;20450;-68
2022/07/23 10:25:37;;;;;;;62.27;5.23;;;;;;;;;;5094148;28;20442;-67
2022/07/23 10:28:14;;;;;;;61.33;4.77;;;;;;;;;;5094886;28;21011;-65
2022/07/23 10:30:45;;;;;;;61.60;4.23;;;;;;;;;;5094642;28;20536;-65
2022/07/23 10:33:25;;;;;;;59.17;4.80;;;;;;;;;;5093969;28;20450;-66
2022/07/23 10:35:55;;;;;;;59.90;5.47;;;;;;;;;;5092869;28;20445;-66
2022/07/23 10:38:25;;;;;;;59.53;4.80;;;;;;;;;;5092922;28;20450;-66
2022/07/23 10:40:56;;;;;;;59.17;4.60;;;;;;;;;;5092613;28;20888;-65
2022/07/23 10:43:25;;;;;;;59.00;4.30;;;;;;;;;;5092521;28;20458;-65
2022/07/23 10:45:52;;;;;;;58.80;4.43;;;;;;;;;;5092245;28;20542;-65
2022/07/23 10:48:21;;;;;;;58.90;4.57;;;;;;;;;;5092996;28;20462;-66
2022/07/23 10:51:03;;;;;;;60.67;5.47;;;;;;;;;;5091194;28;20487;-65
2022/07/23 10:53:30;;;;;;;59.13;4.60;;;;;;;;;;5092334;28;20443;-65
2022/07/23 10:55:57;;;;;;;58.33;4.30;;;;;;;;;;5094290;28;20632;-66
2022/07/23 10:58:46;;;;;;;60.47;4.90;;;;;;;;;;5093719;28;20450;-65
2022/07/23 11:01:35;;;;;;;59.77;4.80;;;;;;;;;;5093661;28;20458;-65
2022/07/23 11:04:04;;;;;;;60.77;5.30;;;;;;;;;;5093414;28;20452;-65
2022/07/23 11:07:04;;;;;;;59.47;4.70;;;;;;;;;;5091655;28;20482;-65
2022/07/23 11:09:39;;;;;;;59.50;4.70;;;;;;;;;;5091704;28;20487;-66
2022/07/23 11:12:24;;;;;;;58.57;4.70;;;;;;;;;;5091075;28;21056;-66
2022/07/23 11:15:02;;;;;;;58.50;4.27;;;;;;;;;;5091719;28;20557;-66
2022/07/23 11:17:30;;;;;;;59.00;4.80;;;;;;;;;;5091958;28;20450;-66
2022/07/23 11:20:21;;;;;;;58.87;4.73;;;;;;;;;;5091828;28;20464;-66
2022/07/23 11:22:49;;;;;;;59.20;4.60;;;;;;;;;;5090779;28;20466;-66
2022/07/23 11:25:30;;;;;;;60.20;5.33;;;;;;;;;;5092597;28;20442;-66
2022/07/23 11:28:10;;;;;;;60.10;4.63;;;;;;;;;;5093256;28;20453;-65
2022/07/23 11:30:42;;;;;;;59.63;5.10;;;;;;;;;;5093695;28;20544;-65
2022/07/23 11:33:19;;;;;;;58.57;4.53;;;;;;;;;;5092548;28;20568;-65
2022/07/23 11:35:47;;;;;;;59.20;4.83;;;;;;;;;;5091648;28;20546;-66
2022/07/23 11:38:15;;;;;;;59.53;5.00;;;;;;;;;;5091705;28;20533;-65
2022/07/23 11:40:43;;;;;;;58.87;4.80;;;;;;;;;;5091297;28;20470;-65
2022/07/23 11:43:11;;;;;;;59.57;4.73;;;;;;;;;;5091244;28;20451;-65
2022/07/23 11:45:38;;;;;;;58.73;4.43;;;;;;;;;;5091190;28;20462;-65
2022/07/23 11:48:08;;;;;;;59.27;4.70;;;;;;;;;;5091344;28;20450;-65
2022/07/23 11:50:35;;;;;;;58.60;4.43;;;;;;;;;;5090743;28;20482;-65
2022/07/23 11:53:03;;;;;;;59.20;4.33;;;;;;;;;;5089676;28;20975;-65
2022/07/23 11:55:30;;;;;;;60.37;4.10;;;;;;;;;;5092330;28;20446;-65
2022/07/23 11:57:58;;;;;;;59.97;4.93;;;;;;;;;;5092564;28;20454;-65
2022/07/23 12:00:26;;;;;;;59.67;4.73;;;;;;;;;;5093044;28;20470;-65
2022/07/23 12:02:54;;;;;;;59.40;4.47;;;;;;;;;;5093124;28;20474;-65
2022/07/23 12:05:23;;;;;;;59.37;4.60;;;;;;;;;;5092660;28;20457;-65
2022/07/23 12:07:51;;;;;;;59.00;4.60;;;;;;;;;;5092713;28;20448;-65
2022/07/23 12:10:20;;;;;;;58.53;4.47;;;;;;;;;;5092568;28;20491;-65
2022/07/23 12:12:49;;;;;;;59.93;4.83;;;;;;;;;;5092407;28;20479;-65
2022/07/23 12:15:17;;;;;;;58.37;4.00;;;;;;;;;;5092930;28;20447;-65
2022/07/23 12:17:45;;;;;;;58.77;4.53;;;;;;;;;;5092972;28;20442;-66
2022/07/23 12:20:14;;;;;;;60.00;4.53;;;;;;;;;;5092193;28;20475;-66
2022/07/23 12:22:44;;;;;;;59.20;4.53;;;;;;;;;;5092616;28;20442;-66
2022/07/23 12:25:12;;;;;;;59.40;4.70;;;;;;;;;;5091286;28;20516;-66
2022/07/23 12:27:39;;;;;;;60.00;4.73;;;;;;;;;;5092024;28;20446;-66
2022/07/23 12:30:19;;;;;;;60.27;5.50;;;;;;;;;;5092151;28;20486;-66
2022/07/23 12:32:47;;;;;;;58.83;4.70;;;;;;;;;;5091953;28;20438;-66
2022/07/23 12:35:14;;;;;;;59.00;4.77;;;;;;;;;;5092229;28;20438;-66
2022/07/23 12:37:44;;;;;;;59.90;4.70;;;;;;;;;;5092356;28;20814;-66
2022/07/23 12:40:25;;;;;;;58.77;4.87;;;;;;;;;;5092001;28;20838;-66
2022/07/23 12:42:53;;;;;;;58.90;4.27;;;;;;;;;;5092075;28;20947;-66
2022/07/23 12:45:20;;;;;;;59.30;5.03;;;;;;;;;;5092124;28;20530;-66
2022/07/23 12:47:54;;;;;;;59.90;4.50;;;;;;;;;;5091818;28;20827;-66
2022/07/23 12:50:40;;;;;;;58.67;4.47;;;;;;;;;;5091767;28;20488;-66
2022/07/23 12:53:10;;;;;;;59.47;5.00;;;;;;;;;;5091695;28;20450;-66
2022/07/23 12:55:37;;;;;;;59.87;4.77;;;;;;;;;;5091570;28;20446;-66
2022/07/23 12:58:06;;;;;;;59.07;4.40;;;;;;;;;;5090556;28;20461;-66
2022/07/23 13:00:33;;;;;;;58.83;4.60;;;;;;;;;;5091829;28;20469;-66
2022/07/23 13:03:01;;;;;;;58.47;4.30;;;;;;;;;;5092228;28;20477;-66
2022/07/23 13:05:28;;;;;;;59.77;4.80;;;;;;;;;;5091793;28;20982;-66
2022/07/23 13:07:56;;;;;;;60.87;5.00;;;;;;;;;;5091328;28;20451;-66
2022/07/23 13:10:24;;;;;;;59.10;5.20;;;;;;;;;;5091676;28;20478;-66
2022/07/23 13:12:51;;;;;;;58.97;5.13;;;;;;;;;;5091470;28;20789;-66
2022/07/23 13:15:18;;;;;;;60.43;5.73;;;;;;;;;;5091472;28;20448;-66
2022/07/23 13:17:47;;;;;;;59.27;4.90;;;;;;;;;;5091750;28;20446;-66
2022/07/23 13:20:15;;;;;;;59.37;4.53;;;;;;;;;;5091339;28;20553;-66
2022/07/23 13:22:42;;;;;;;59.97;5.33;;;;;;;;;;5091359;28;20457;-66
2022/07/23 13:25:10;;;;;;;60.10;5.33;;;;;;;;;;5091476;28;20537;-66
2022/07/23 13:27:38;;;;;;;61.63;5.93;;;;;;;;;;5091345;28;20446;-66
2022/07/23 13:30:06;;;;;;;60.03;5.00;;;;;;;;;;5090477;28;20852;-65
2022/07/23 13:32:33;;;;;;;60.40;5.43;;;;;;;;;;5091777;28;20808;-65
2022/07/23 13:35:00;;;;;;;59.23;4.60;;;;;;;;;;5092819;28;20858;-66
2022/07/23 13:37:27;;;;;;;59.73;5.13;;;;;;;;;;5095501;28;20452;-66
2022/07/23 13:39:54;;;;;;;61.30;5.93;;;;;;;;;;5095561;28;20472;-66
2022/07/23 13:42:21;;;;;;;60.87;5.47;;;;;;;;;;5095466;28;20448;-66
2022/07/23 13:44:50;;;;;;;59.67;4.73;;;;;;;;;;5095541;28;20446;-66
2022/07/23 13:47:17;;;;;;;59.50;4.63;;;;;;;;;;5095157;28;20834;-66
2022/07/23 13:49:44;;;;;;;61.00;5.00;;;;;;;;;;5094750;28;20552;-66
2022/07/23 13:52:11;;;;;;;59.80;5.10;;;;;;;;;;5095483;28;20482;-66
2022/07/23 13:54:38;;;;;;;60.07;5.40;;;;;;;;;;5095104;28;20830;-66
2022/07/23 13:57:06;;;;;;;61.27;5.40;;;;;;;;;;5095481;28;20533;-66
2022/07/23 13:59:33;;;;;;;60.40;5.83;;;;;;;;;;5092930;28;20872;-67
2022/07/23 14:02:01;;;;;;;59.30;5.20;;;;;;;;;;5095027;28;20449;-66
2022/07/23 14:04:29;;;;;;;59.60;5.77;;;;;;;;;;5095014;28;20438;-66
2022/07/23 14:06:56;;;;;;;60.17;5.90;;;;;;;;;;5095038;28;20456;-66
2022/07/23 14:09:23;;;;;;;60.10;6.33;;;;;;;;;;5094526;28;20470;-66
2022/07/23 14:11:50;;;;;;;59.00;5.60;;;;;;;;;;5094981;28;20509;-66
2022/07/23 14:14:18;;;;;;;58.87;4.97;;;;;;;;;;5094658;28;20821;-66
2022/07/23 14:16:45;;;;;;;59.67;5.60;;;;;;;;;;5094263;28;20897;-67
2022/07/23 14:19:14;;;;;;;61.43;6.07;;;;;;;;;;5094550;28;20542;-67
2022/07/23 14:21:41;;;;;;;59.50;5.40;;;;;;;;;;5094892;28;20444;-66
2022/07/23 14:24:08;;;;;;;60.47;6.20;;;;;;;;;;5094602;28;20451;-66
2022/07/23 14:26:36;;;;;;;59.27;5.43;;;;;;;;;;5094330;28;20446;-66
2022/07/23 14:29:03;;;;;;;59.00;5.30;;;;;;;;;;5094304;28;20450;-66
2022/07/23 14:31:30;;;;;;;60.17;5.40;;;;;;;;;;5092035;28;21023;-67
2022/07/23 14:33:57;;;;;;;59.40;5.20;;;;;;;;;;5094267;28;20450;-66
2022/07/23 14:36:26;;;;;;;58.67;5.43;;;;;;;;;;5094235;28;20442;-66
2022/07/23 14:38:53;;;;;;;59.67;5.87;;;;;;;;;;5094183;28;20453;-67